KMUI

Muir AAF (Fort Indiantown Gap) Airport

Fort Indiantown Gap(Annville), Pennsylvania, USA
METAR KMUI 202256Z 13005KT 10SM BKN034 BKN050 23/18 A3010 RMK SLP193 T02270184 10240 20222 50000 $
Observed Flight Rules
Aug-20 @ 22:56 UTC (an hour ago) Visual Flight Rules
Wind Visibility Clouds
130° at 5 knots 10 miles
  • Broken at 3,400' AGL
  • Broken at 5,000' AGL
Temperatures Readings
Current 23°C / 73°F
Dewpoint 18°C / 64°F
Humidity 74%
Altimeter 30.1" Hg
Pressure 1019.3 hPa
Elevation 149
METAR KMUI 202256Z 13005KT 10SM BKN034 BKN050 23/18 A3010 RMK SLP193 T02270184 10240 20222 50000 $
Observed Flight Rules
Aug-20 @ 22:56 UTC
(an hour ago)
VFR
Wind Visibility
130° at 5 knots 10 miles
Clouds
  • Broken at 3,400' AGL
  • Broken at 5,000' AGL
Temperature Dewpoint
23°C / 73°F 18°C / 64°F
Humidity Altimeter Pressure
74% 30.1" Hg 1019.3 hPa